createdAt,value
2022-08-17T00:00:12.788Z,6.97
2022-08-17T00:03:22.411Z,7.32
2022-08-17T00:06:01.029Z,6.72
2022-08-17T00:08:34.736Z,6.70
2022-08-17T00:11:06.174Z,7.65
2022-08-17T00:14:09.216Z,6.53
2022-08-17T00:16:55.405Z,6.78
2022-08-17T00:19:26.292Z,7.10
2022-08-17T00:22:32.592Z,7.45
2022-08-17T00:24:43.760Z,7.55
2022-08-17T00:27:10.788Z,7.38
2022-08-17T00:29:37.839Z,7.70
2022-08-17T00:33:14.103Z,7.78
2022-08-17T00:34:52.106Z,6.75
2022-08-17T00:37:19.170Z,6.68
2022-08-17T00:39:46.251Z,7.20
2022-08-17T00:42:20.037Z,7.43
2022-08-17T00:44:47.264Z,7.93
2022-08-17T00:47:14.323Z,7.82
2022-08-17T00:49:41.567Z,8.65
2022-08-17T00:52:16.821Z,8.52
2022-08-17T00:54:47.313Z,8.25
2022-08-17T00:57:50.288Z,8.45
2022-08-17T01:00:26.965Z,9.57
2022-08-17T01:03:08.447Z,8.48
2022-08-17T01:05:42.256Z,6.55
2022-08-17T01:08:13.806Z,7.93
2022-08-17T01:10:59.735Z,7.68
2022-08-17T01:16:18.801Z,6.90
2022-08-17T01:18:49.118Z,7.50
2022-08-17T01:21:20.881Z,7.43
2022-08-17T01:23:48.031Z,7.50
2022-08-17T01:26:15.186Z,7.90
2022-08-17T01:28:54.168Z,8.38
2022-08-17T01:31:25.566Z,9.30
2022-08-17T01:33:52.723Z,9.38
2022-08-17T01:36:19.863Z,8.95
2022-08-17T01:38:46.975Z,8.68
2022-08-17T01:41:16.612Z,10.25
2022-08-17T01:43:57.021Z,9.75
2022-08-17T01:46:28.494Z,10.75
2022-08-17T01:48:57.926Z,14.10
2022-08-17T01:51:27.870Z,14.55
2022-08-17T01:53:58.368Z,11.43
2022-08-17T01:56:27.174Z,13.50
2022-08-17T01:58:54.374Z,13.32
2022-08-17T02:01:26.793Z,12.52
2022-08-17T02:04:00.754Z,13.60
2022-08-17T02:06:52.916Z,14.75
2022-08-17T02:09:29.957Z,14.82
2022-08-17T02:11:59.621Z,13.50
2022-08-17T02:14:26.944Z,12.88
2022-08-17T02:16:54.434Z,11.38
2022-08-17T02:19:22.451Z,11.07
2022-08-17T02:21:53.073Z,12.00
2022-08-17T02:24:59.780Z,12.45
2022-08-17T02:27:19.423Z,12.07
2022-08-17T02:29:46.467Z,11.65
2022-08-17T02:32:25.454Z,11.68
2022-08-17T02:34:56.194Z,11.65
2022-08-17T02:37:23.463Z,12.32
2022-08-17T02:39:50.458Z,11.70
2022-08-17T02:42:17.480Z,13.05
2022-08-17T02:44:45.200Z,13.73
2022-08-17T02:47:12.492Z,13.50
2022-08-17T02:49:39.557Z,13.00
2022-08-17T02:52:08.145Z,13.15
2022-08-17T02:54:40.415Z,13.02
2022-08-17T02:57:10.547Z,13.95
2022-08-17T02:59:46.791Z,13.57
2022-08-17T03:02:16.176Z,14.57
2022-08-17T03:04:43.357Z,13.38
2022-08-17T03:07:10.355Z,13.63
2022-08-17T03:09:37.927Z,13.88
2022-08-17T03:12:10.943Z,13.30
2022-08-17T03:14:41.703Z,12.75
2022-08-17T03:17:10.194Z,14.27
2022-08-17T03:19:37.752Z,14.88
2022-08-17T03:22:35.537Z,14.68
2022-08-17T03:24:57.035Z,15.27
2022-08-17T03:27:24.082Z,15.88
2022-08-17T03:29:51.194Z,15.38
2022-08-17T03:32:20.775Z,17.38
2022-08-17T03:34:48.403Z,17.35
2022-08-17T03:37:16.770Z,15.00
2022-08-17T03:39:43.842Z,16.13
2022-08-17T03:42:31.620Z,16.00
2022-08-17T03:45:00.174Z,16.90
2022-08-17T03:47:46.186Z,16.98
2022-08-17T03:50:32.885Z,17.48
2022-08-17T03:53:21.691Z,18.08
2022-08-17T03:56:18.016Z,18.45
2022-08-17T03:58:45.511Z,17.38
2022-08-17T04:01:12.901Z,17.52
2022-08-17T04:03:40.085Z,16.77
2022-08-17T04:06:07.338Z,17.23
2022-08-17T04:08:34.575Z,16.80
2022-08-17T04:11:16.443Z,17.60
2022-08-17T04:13:43.408Z,17.33
2022-08-17T04:16:10.367Z,18.38
2022-08-17T04:18:38.543Z,17.05
2022-08-17T04:21:08.592Z,18.17
2022-08-17T04:23:36.846Z,18.30
2022-08-17T04:26:04.391Z,18.30
2022-08-17T04:28:31.434Z,16.15
2022-08-17T04:30:59.085Z,16.50
2022-08-17T04:33:28.540Z,16.40
2022-08-17T04:35:59.491Z,15.65
2022-08-17T04:38:29.465Z,18.20
2022-08-17T04:41:17.134Z,17.52
2022-08-17T04:46:15.129Z,18.58
2022-08-17T04:48:45.379Z,19.77
2022-08-17T04:51:14.049Z,21.35
2022-08-17T04:53:44.906Z,21.33
2022-08-17T04:56:18.118Z,20.13
2022-08-17T04:58:48.180Z,22.13
2022-08-17T05:01:17.624Z,22.17
2022-08-17T05:03:56.273Z,22.73
2022-08-17T05:06:24.272Z,22.95
2022-08-17T05:08:51.556Z,23.55
2022-08-17T05:11:18.670Z,24.15
2022-08-17T05:13:46.055Z,23.92
2022-08-17T05:16:13.242Z,24.92
2022-08-17T05:18:40.583Z,26.63
2022-08-17T05:21:08.361Z,26.45
2022-08-17T05:23:42.776Z,26.30
2022-08-17T05:26:25.645Z,28.52
2022-08-17T05:28:57.214Z,27.08
2022-08-17T05:31:27.402Z,26.77
2022-08-17T05:33:54.476Z,26.95
2022-08-17T05:36:38.070Z,27.30
2022-08-17T05:39:08.580Z,28.42
2022-08-17T05:41:42.703Z,29.40
2022-08-17T05:44:09.832Z,29.02
2022-08-17T05:46:40.709Z,29.83
2022-08-17T05:49:08.683Z,29.40
2022-08-17T05:52:03.994Z,27.92
2022-08-17T05:55:03.453Z,29.60
2022-08-17T05:57:43.613Z,31.25
2022-08-17T06:00:31.766Z,30.00
2022-08-17T06:03:29.010Z,30.20
2022-08-17T06:06:17.170Z,30.63
2022-08-17T06:08:53.220Z,31.08
2022-08-17T06:11:43.192Z,30.85
2022-08-17T06:14:41.956Z,31.92
2022-08-17T06:17:14.633Z,30.58
2022-08-17T06:19:48.235Z,32.22
2022-08-17T06:22:19.368Z,33.25
2022-08-17T06:24:57.066Z,34.45
2022-08-17T06:27:30.633Z,34.70
2022-08-17T06:30:12.437Z,34.88
2022-08-17T06:32:43.780Z,37.33
2022-08-17T06:35:14.248Z,35.15
2022-08-17T06:37:59.731Z,35.38
2022-08-17T06:40:45.747Z,36.88
2022-08-17T06:43:25.039Z,39.25
2022-08-17T06:46:19.305Z,38.70
2022-08-17T06:49:09.489Z,39.13
2022-08-17T06:51:41.444Z,37.28
2022-08-17T06:54:26.138Z,38.35
2022-08-17T06:57:16.874Z,38.13
2022-08-17T06:59:56.794Z,35.90
2022-08-17T07:02:58.417Z,36.22
2022-08-17T07:05:36.751Z,36.90
2022-08-17T07:08:35.258Z,41.85
2022-08-17T07:11:14.723Z,41.35
2022-08-17T07:13:51.746Z,39.45
2022-08-17T07:18:57.420Z,38.00
2022-08-17T07:21:49.852Z,38.22
2022-08-17T07:24:37.532Z,38.92
2022-08-17T07:29:44.876Z,40.10
2022-08-17T07:32:18.550Z,40.08
2022-08-17T07:35:31.248Z,37.53
2022-08-17T07:38:25.891Z,35.42
2022-08-17T07:41:03.150Z,32.95
2022-08-17T07:43:39.261Z,33.75
2022-08-17T07:46:33.118Z,32.97
2022-08-17T07:49:08.670Z,32.35
2022-08-17T07:51:38.537Z,33.40
2022-08-17T07:54:23.429Z,32.67
2022-08-17T07:56:52.632Z,33.20
2022-08-17T07:59:23.026Z,32.88
2022-08-17T08:01:58.187Z,32.05
2022-08-17T08:04:58.846Z,34.00
2022-08-17T08:07:17.471Z,34.33
2022-08-17T08:09:59.776Z,35.67
2022-08-17T08:12:34.128Z,33.97
2022-08-17T08:15:13.840Z,36.35
2022-08-17T08:17:59.522Z,35.22
2022-08-17T08:20:51.896Z,36.75
2022-08-17T08:23:29.999Z,36.75
2022-08-17T08:25:59.728Z,36.00
2022-08-17T08:28:45.668Z,37.05
2022-08-17T08:31:44.772Z,35.00
2022-08-17T08:34:58.707Z,34.60
2022-08-17T08:37:33.212Z,36.30
2022-08-17T08:40:11.543Z,34.78
2022-08-17T08:43:07.908Z,36.80
2022-08-17T08:46:01.559Z,37.92
2022-08-17T08:48:53.293Z,38.55
2022-08-17T08:51:30.693Z,39.17
2022-08-17T08:54:10.759Z,37.47
2022-08-17T08:57:19.284Z,38.95
2022-08-17T08:59:59.737Z,37.75
2022-08-17T09:02:56.646Z,39.72
2022-08-17T09:05:42.404Z,39.28
2022-08-17T09:08:23.506Z,37.38
2022-08-17T09:11:10.943Z,34.25
2022-08-17T09:13:54.592Z,34.88
2022-08-17T09:16:29.967Z,36.55
2022-08-17T09:19:11.881Z,37.40
2022-08-17T09:21:48.642Z,36.47
2022-08-17T09:26:59.590Z,35.88
2022-08-17T09:29:35.327Z,35.72
2022-08-17T09:32:20.415Z,35.28
2022-08-17T09:34:54.979Z,34.28
2022-08-17T09:37:38.074Z,35.00
2022-08-17T09:40:20.124Z,33.75
2022-08-17T09:43:02.054Z,31.90
2022-08-17T09:45:42.829Z,35.28
2022-08-17T09:48:21.040Z,33.55
2022-08-17T09:51:06.575Z,33.63
2022-08-17T09:53:36.973Z,31.38
2022-08-17T09:56:13.071Z,32.30
2022-08-17T09:58:56.810Z,32.90
2022-08-17T10:01:37.579Z,33.60
2022-08-17T10:04:14.480Z,35.28
2022-08-17T10:06:59.254Z,35.78
2022-08-17T10:10:02.850Z,35.35
2022-08-17T10:12:53.192Z,31.48
2022-08-17T10:15:50.421Z,30.15
2022-08-17T10:19:02.320Z,30.02
2022-08-17T10:22:01.344Z,28.20
2022-08-17T10:25:21.618Z,29.45
2022-08-17T10:27:52.484Z,28.70
2022-08-17T10:30:24.044Z,28.70
2022-08-17T10:32:59.378Z,29.17
2022-08-17T10:36:10.809Z,29.10
2022-08-17T10:38:47.852Z,29.95
2022-08-17T10:41:50.668Z,29.30
2022-08-17T10:44:38.631Z,28.92
2022-08-17T10:47:15.376Z,28.52
2022-08-17T10:49:49.774Z,30.05
2022-08-17T10:52:20.006Z,30.13
2022-08-17T10:54:51.597Z,29.85
2022-08-17T10:57:31.931Z,29.65
2022-08-17T11:02:38.702Z,29.08
2022-08-17T11:05:32.507Z,29.00
2022-08-17T11:08:36.409Z,27.80
2022-08-17T11:11:36.653Z,28.83
2022-08-17T11:14:31.427Z,27.02
2022-08-17T11:17:13.341Z,27.92
2022-08-17T11:19:47.310Z,27.27
2022-08-17T11:22:48.865Z,28.67
2022-08-17T11:25:22.842Z,27.02
2022-08-17T11:28:04.448Z,28.80
2022-08-17T11:30:48.683Z,26.90
2022-08-17T11:33:36.941Z,27.42
2022-08-17T11:36:46.495Z,25.92
2022-08-17T11:39:37.954Z,26.80
2022-08-17T11:42:20.126Z,26.20
2022-08-17T11:45:08.758Z,26.33
2022-08-17T11:48:27.138Z,25.88
2022-08-17T11:51:24.719Z,27.17
2022-08-17T11:54:03.544Z,26.45
2022-08-17T11:59:42.056Z,28.67
2022-08-17T12:02:36.294Z,28.52
2022-08-17T12:05:12.643Z,31.05
2022-08-17T12:07:52.171Z,27.23
2022-08-17T12:10:23.914Z,28.60
2022-08-17T12:12:53.262Z,28.45
2022-08-17T12:15:30.874Z,27.17
2022-08-17T12:17:58.361Z,27.58
2022-08-17T12:20:43.579Z,26.80
2022-08-17T12:23:23.150Z,27.35
2022-08-17T12:26:13.237Z,27.92
2022-08-17T12:28:46.124Z,26.23
2022-08-17T12:31:21.922Z,26.40
2022-08-17T12:33:50.311Z,26.63
2022-08-17T12:36:24.930Z,27.75
2022-08-17T12:39:12.898Z,27.80
2022-08-17T12:41:45.009Z,29.10
2022-08-17T12:44:12.393Z,27.55
2022-08-17T12:46:56.278Z,27.58
2022-08-17T12:49:30.966Z,26.88
2022-08-17T12:52:26.816Z,28.63
2022-08-17T12:55:00.582Z,29.25
2022-08-17T12:57:41.763Z,31.20
2022-08-17T13:00:31.430Z,32.20
2022-08-17T13:03:03.551Z,30.77
2022-08-17T13:05:37.122Z,30.35
2022-08-17T13:08:37.960Z,28.65
2022-08-17T13:11:06.405Z,28.20
2022-08-17T13:13:36.590Z,30.02
2022-08-17T13:16:09.674Z,27.55
2022-08-17T13:18:47.514Z,28.65
2022-08-17T13:21:30.573Z,29.90
2022-08-17T13:24:13.966Z,29.48
2022-08-17T13:26:45.637Z,32.08
2022-08-17T13:29:26.962Z,32.20
2022-08-17T13:32:13.713Z,30.25
2022-08-17T13:35:11.761Z,28.57
2022-08-17T13:37:37.833Z,30.85
2022-08-17T13:40:10.955Z,30.98
2022-08-17T13:42:54.640Z,29.30
2022-08-17T13:45:36.695Z,28.17
2022-08-17T13:48:11.167Z,28.77
2022-08-17T13:50:47.320Z,27.90
2022-08-17T13:53:19.307Z,29.02
2022-08-17T13:55:56.534Z,29.42
2022-08-17T13:58:32.281Z,29.35
2022-08-17T14:01:19.686Z,29.52
2022-08-17T14:03:46.670Z,29.60
2022-08-17T14:06:22.157Z,30.13
2022-08-17T14:09:05.520Z,29.80
2022-08-17T14:11:32.755Z,28.83
2022-08-17T14:13:59.831Z,27.98
2022-08-17T14:16:26.802Z,28.02
2022-08-17T14:18:56.604Z,27.70
2022-08-17T14:21:24.260Z,28.02
2022-08-17T14:23:54.733Z,27.65
2022-08-17T14:26:23.202Z,28.08
2022-08-17T14:28:56.600Z,28.08
2022-08-17T14:31:24.194Z,27.55
2022-08-17T14:33:52.269Z,28.00
2022-08-17T14:36:19.274Z,27.90
2022-08-17T14:38:46.349Z,26.02
2022-08-17T14:41:14.319Z,22.85
2022-08-17T14:43:44.245Z,24.60
2022-08-17T14:46:12.489Z,24.50
2022-08-17T14:48:40.794Z,23.58
2022-08-17T14:51:07.886Z,23.23
2022-08-17T14:53:34.972Z,24.65
2022-08-17T14:56:02.187Z,22.75
2022-08-17T14:58:29.850Z,21.70
2022-08-17T15:00:57.706Z,22.92
2022-08-17T15:03:24.940Z,20.77
2022-08-17T15:05:51.990Z,20.90
2022-08-17T15:08:19.724Z,21.35
2022-08-17T15:10:49.346Z,20.05
2022-08-17T15:13:22.243Z,21.75
2022-08-17T15:15:50.299Z,19.30
2022-08-17T15:18:17.987Z,17.63
2022-08-17T15:20:46.424Z,18.17
2022-08-17T15:23:19.361Z,18.13
2022-08-17T15:25:48.664Z,17.63
2022-08-17T15:28:16.280Z,17.80
2022-08-17T15:30:45.077Z,14.90
2022-08-17T15:33:21.885Z,14.35
2022-08-17T15:35:56.378Z,14.30
2022-08-17T15:38:23.653Z,14.68
2022-08-17T15:40:52.037Z,14.25
2022-08-17T15:43:33.266Z,14.40
2022-08-17T15:46:12.456Z,14.68
2022-08-17T15:48:42.205Z,16.38
2022-08-17T15:51:16.128Z,16.92
2022-08-17T15:53:45.637Z,15.90
2022-08-17T15:56:13.824Z,16.38
2022-08-17T15:58:42.476Z,15.60
2022-08-17T16:01:14.102Z,16.77
2022-08-17T16:04:04.013Z,15.98
2022-08-17T16:08:59.648Z,15.77
2022-08-17T16:11:27.118Z,16.42
2022-08-17T16:13:55.138Z,17.92
2022-08-17T16:16:23.841Z,17.33
2022-08-17T16:18:54.693Z,16.60
2022-08-17T16:21:26.071Z,15.10
2022-08-17T16:24:03.963Z,16.48
2022-08-17T16:26:33.608Z,14.50
2022-08-17T16:29:04.539Z,14.38
2022-08-17T16:31:32.439Z,14.43
2022-08-17T16:34:16.211Z,14.32
2022-08-17T16:36:55.741Z,13.38
2022-08-17T16:39:29.387Z,12.40
2022-08-17T16:41:57.623Z,12.00
2022-08-17T16:44:31.150Z,12.35
2022-08-17T16:47:01.105Z,11.38
2022-08-17T16:49:37.234Z,10.68
2022-08-17T16:52:07.765Z,11.40
2022-08-17T16:54:37.097Z,10.25
2022-08-17T16:57:05.538Z,9.02
2022-08-17T16:59:41.119Z,7.70
2022-08-17T17:02:13.298Z,7.47
2022-08-17T17:04:50.210Z,7.00
2022-08-17T17:10:07.854Z,6.07
2022-08-17T17:13:03.579Z,5.40
2022-08-17T17:15:33.063Z,5.28
2022-08-17T17:18:07.060Z,5.00
2022-08-17T17:20:47.494Z,4.70
2022-08-17T17:23:42.174Z,5.13
2022-08-17T17:26:18.928Z,5.47
2022-08-17T17:29:08.120Z,5.40
2022-08-17T17:32:05.859Z,5.90
2022-08-17T17:34:35.148Z,5.65
2022-08-17T17:37:20.840Z,6.18
2022-08-17T17:40:00.141Z,6.40
2022-08-17T17:42:33.183Z,6.68
2022-08-17T17:45:33.072Z,6.47
2022-08-17T17:48:00.027Z,6.88
2022-08-17T17:50:36.676Z,7.53
2022-08-17T17:53:09.796Z,8.73
2022-08-17T17:55:45.631Z,7.30
2022-08-17T17:58:50.737Z,8.10
2022-08-17T18:01:33.532Z,8.30
2022-08-17T18:04:27.835Z,8.05
2022-08-17T18:07:13.171Z,7.75
2022-08-17T18:10:01.014Z,8.15
2022-08-17T18:12:58.406Z,8.30
2022-08-17T18:15:35.937Z,8.75
2022-08-17T18:18:14.770Z,9.23
2022-08-17T18:20:54.082Z,9.98
2022-08-17T18:23:28.160Z,10.10
2022-08-17T18:25:57.050Z,9.07
2022-08-17T18:28:28.081Z,10.32
2022-08-17T18:31:09.692Z,10.63
2022-08-17T18:33:38.716Z,9.68
2022-08-17T18:36:06.957Z,9.20
2022-08-17T18:38:38.717Z,9.18
2022-08-17T18:41:23.824Z,9.20
2022-08-17T18:44:54.318Z,9.00
2022-08-17T18:47:27.968Z,9.32
2022-08-17T18:49:58.761Z,9.15
2022-08-17T18:52:32.057Z,9.48
2022-08-17T18:55:08.933Z,9.65
2022-08-17T18:57:45.869Z,9.25
2022-08-17T19:00:22.013Z,10.43
2022-08-17T19:02:55.959Z,10.93
2022-08-17T19:05:35.222Z,10.38
2022-08-17T19:08:19.736Z,11.90
2022-08-17T19:10:56.382Z,12.52
2022-08-17T19:13:34.077Z,13.57
2022-08-17T19:16:25.377Z,14.13
2022-08-17T19:19:14.523Z,14.27
2022-08-17T19:21:53.348Z,13.05
2022-08-17T19:24:26.733Z,13.45
2022-08-17T19:27:17.829Z,13.70
2022-08-17T19:30:01.704Z,13.57
2022-08-17T19:32:35.489Z,14.55
2022-08-17T19:35:06.450Z,13.75
2022-08-17T19:37:43.132Z,13.88
2022-08-17T19:41:02.012Z,14.32
2022-08-17T19:44:07.350Z,14.38
2022-08-17T19:47:06.338Z,12.93
2022-08-17T19:50:12.339Z,14.68
2022-08-17T19:53:07.417Z,15.20
2022-08-17T19:55:48.661Z,15.27
2022-08-17T19:58:48.395Z,14.57
2022-08-17T20:01:34.661Z,15.27
2022-08-17T20:04:27.016Z,15.30
2022-08-17T20:07:14.544Z,14.87
2022-08-17T20:10:04.244Z,13.45
2022-08-17T20:12:36.288Z,14.80
2022-08-17T20:15:17.128Z,15.65
2022-08-17T20:17:46.965Z,14.18
2022-08-17T20:20:55.911Z,14.48
2022-08-17T20:23:28.809Z,13.10
2022-08-17T20:26:19.106Z,15.02
2022-08-17T20:29:14.056Z,13.80
2022-08-17T20:31:55.899Z,13.30
2022-08-17T20:34:47.821Z,13.63
2022-08-17T20:37:14.820Z,13.40
2022-08-17T20:39:52.744Z,16.05
2022-08-17T20:42:22.690Z,13.82
2022-08-17T20:45:05.885Z,12.77
2022-08-17T20:47:55.344Z,12.75
2022-08-17T20:50:33.775Z,13.95
2022-08-17T20:53:09.293Z,13.82
2022-08-17T20:55:51.382Z,14.13
2022-08-17T20:58:21.338Z,13.48
2022-08-17T21:00:57.683Z,13.55
2022-08-17T21:03:26.914Z,14.98
2022-08-17T21:06:00.253Z,15.82
2022-08-17T21:08:53.827Z,14.20
2022-08-17T21:11:56.777Z,14.88
2022-08-17T21:14:43.224Z,17.63
2022-08-17T21:17:26.429Z,16.58
2022-08-17T21:20:17.402Z,16.63
2022-08-17T21:22:56.390Z,15.32
2022-08-17T21:25:24.911Z,16.10
2022-08-17T21:28:33.821Z,16.15
2022-08-17T21:31:09.222Z,16.13
2022-08-17T21:33:38.749Z,21.15
2022-08-17T21:36:11.960Z,29.25
2022-08-17T21:38:55.683Z,28.77
2022-08-17T21:41:26.651Z,22.98
2022-08-17T21:44:01.887Z,17.08
2022-08-17T21:46:37.807Z,16.45
2022-08-17T21:49:13.481Z,15.20
2022-08-17T21:51:45.826Z,16.00
2022-08-17T21:54:39.087Z,19.40
2022-08-17T21:57:15.906Z,32.10
2022-08-17T21:59:44.398Z,21.63
2022-08-17T22:02:25.115Z,26.17
2022-08-17T22:05:03.631Z,25.52
2022-08-17T22:07:59.087Z,26.95
2022-08-17T22:10:40.139Z,22.83
2022-08-17T22:13:16.748Z,22.35
2022-08-17T22:15:48.072Z,25.52
2022-08-17T22:18:24.966Z,26.20
2022-08-17T22:20:58.740Z,24.33
2022-08-17T22:23:59.657Z,20.48
2022-08-17T22:26:48.638Z,21.88
2022-08-17T22:29:57.149Z,21.05
2022-08-17T22:32:37.411Z,21.38
2022-08-17T22:35:29.023Z,21.50
2022-08-17T22:37:57.291Z,22.00
2022-08-17T22:40:30.713Z,22.17
2022-08-17T22:42:59.423Z,23.75
2022-08-17T22:45:30.004Z,21.75
2022-08-17T22:47:58.898Z,22.83
2022-08-17T22:50:33.064Z,22.75
2022-08-17T22:53:31.622Z,22.80
2022-08-17T22:56:17.229Z,22.45
2022-08-17T22:59:30.822Z,23.05
2022-08-17T23:02:35.771Z,23.98
2022-08-17T23:07:45.986Z,26.60
2022-08-17T23:10:14.055Z,25.27
2022-08-17T23:12:41.251Z,25.30
2022-08-17T23:15:15.251Z,27.00
2022-08-17T23:17:42.322Z,27.83
2022-08-17T23:20:12.827Z,33.20
2022-08-17T23:22:51.186Z,34.58
2022-08-17T23:25:30.891Z,33.75
2022-08-17T23:28:01.760Z,33.35
2022-08-17T23:30:34.016Z,35.70
2022-08-17T23:33:05.763Z,34.65
2022-08-17T23:35:39.966Z,35.10
2022-08-17T23:38:10.207Z,32.72
2022-08-17T23:40:39.385Z,33.05
2022-08-17T23:43:23.937Z,32.63
2022-08-17T23:45:54.756Z,31.52
2022-08-17T23:48:34.913Z,29.77
2022-08-17T23:51:06.074Z,34.55
2022-08-17T23:53:35.115Z,34.83
2022-08-17T23:56:10.042Z,35.53
2022-08-17T23:58:40.117Z,37.53
